sensor_id;sensor_type;location;lat;lon;timestamp;temperature;humidity
78541;SHT31;67835;51.968;5.646;2023-07-08T00:01:16;22.9;44.0
78541;SHT31;67835;51.968;5.646;2023-07-08T00:03:48;22.9;44.3
78541;SHT31;67835;51.968;5.646;2023-07-08T00:06:19;22.9;44.2
78541;SHT31;67835;51.968;5.646;2023-07-08T00:08:49;22.8;44.4
78541;SHT31;67835;51.968;5.646;2023-07-08T00:11:18;22.8;44.2
78541;SHT31;67835;51.968;5.646;2023-07-08T00:13:47;22.8;44.3
78541;SHT31;67835;51.968;5.646;2023-07-08T00:16:18;22.7;44.5
78541;SHT31;67835;51.968;5.646;2023-07-08T00:18:47;22.7;44.4
78541;SHT31;67835;51.968;5.646;2023-07-08T00:21:17;22.7;44.6
78541;SHT31;67835;51.968;5.646;2023-07-08T00:23:48;22.7;44.5
78541;SHT31;67835;51.968;5.646;2023-07-08T00:26:21;22.6;44.6
78541;SHT31;67835;51.968;5.646;2023-07-08T00:28:53;22.6;44.7
78541;SHT31;67835;51.968;5.646;2023-07-08T00:31:23;22.6;44.8
78541;SHT31;67835;51.968;5.646;2023-07-08T00:33:54;22.5;44.9
78541;SHT31;67835;51.968;5.646;2023-07-08T00:36:25;22.5;44.9
78541;SHT31;67835;51.968;5.646;2023-07-08T00:38:55;22.5;45.3
78541;SHT31;67835;51.968;5.646;2023-07-08T00:41:28;22.5;45.1
78541;SHT31;67835;51.968;5.646;2023-07-08T00:43:59;22.4;45.2
78541;SHT31;67835;51.968;5.646;2023-07-08T00:46:38;22.4;45.4
78541;SHT31;67835;51.968;5.646;2023-07-08T00:49:26;22.4;45.3
78541;SHT31;67835;51.968;5.646;2023-07-08T00:52:16;22.4;45.3
78541;SHT31;67835;51.968;5.646;2023-07-08T00:54:47;22.3;45.3
78541;SHT31;67835;51.968;5.646;2023-07-08T00:57:19;22.3;45.2
78541;SHT31;67835;51.968;5.646;2023-07-08T00:59:54;22.3;45.4
78541;SHT31;67835;51.968;5.646;2023-07-08T01:02:26;22.3;45.4
78541;SHT31;67835;51.968;5.646;2023-07-08T01:05:03;22.3;45.6
78541;SHT31;67835;51.968;5.646;2023-07-08T01:07:34;22.2;45.6
78541;SHT31;67835;51.968;5.646;2023-07-08T01:10:09;22.2;45.7
78541;SHT31;67835;51.968;5.646;2023-07-08T01:12:43;22.2;45.7
78541;SHT31;67835;51.968;5.646;2023-07-08T01:15:12;22.2;45.9
78541;SHT31;67835;51.968;5.646;2023-07-08T01:17:43;22.2;46.0
78541;SHT31;67835;51.968;5.646;2023-07-08T01:20:12;22.1;46.0
78541;SHT31;67835;51.968;5.646;2023-07-08T01:22:42;22.1;46.0
78541;SHT31;67835;51.968;5.646;2023-07-08T01:25:13;22.1;46.0
78541;SHT31;67835;51.968;5.646;2023-07-08T01:27:45;22.0;46.2
78541;SHT31;67835;51.968;5.646;2023-07-08T01:30:16;22.0;46.2
78541;SHT31;67835;51.968;5.646;2023-07-08T01:32:48;22.0;46.4
78541;SHT31;67835;51.968;5.646;2023-07-08T01:35:18;21.9;46.4
78541;SHT31;67835;51.968;5.646;2023-07-08T01:37:53;21.9;46.5
78541;SHT31;67835;51.968;5.646;2023-07-08T01:40:29;21.9;46.8
78541;SHT31;67835;51.968;5.646;2023-07-08T01:43:01;21.8;46.6
78541;SHT31;67835;51.968;5.646;2023-07-08T01:45:35;21.8;46.9
78541;SHT31;67835;51.968;5.646;2023-07-08T01:48:07;21.8;46.8
78541;SHT31;67835;51.968;5.646;2023-07-08T01:50:40;21.7;47.0
78541;SHT31;67835;51.968;5.646;2023-07-08T01:53:13;21.7;47.0
78541;SHT31;67835;51.968;5.646;2023-07-08T01:55:43;21.7;47.0
78541;SHT31;67835;51.968;5.646;2023-07-08T01:58:12;21.6;47.3
78541;SHT31;67835;51.968;5.646;2023-07-08T02:00:41;21.6;47.3
78541;SHT31;67835;51.968;5.646;2023-07-08T02:03:09;21.6;47.5
78541;SHT31;67835;51.968;5.646;2023-07-08T02:05:40;21.6;47.6
78541;SHT31;67835;51.968;5.646;2023-07-08T02:08:09;21.5;47.6
78541;SHT31;67835;51.968;5.646;2023-07-08T02:10:39;21.5;47.9
78541;SHT31;67835;51.968;5.646;2023-07-08T02:13:08;21.5;47.7
78541;SHT31;67835;51.968;5.646;2023-07-08T02:15:37;21.5;48.0
78541;SHT31;67835;51.968;5.646;2023-07-08T02:18:05;21.4;48.1
78541;SHT31;67835;51.968;5.646;2023-07-08T02:20:34;21.4;48.2
78541;SHT31;67835;51.968;5.646;2023-07-08T02:23:02;21.4;48.1
78541;SHT31;67835;51.968;5.646;2023-07-08T02:25:31;21.4;48.3
78541;SHT31;67835;51.968;5.646;2023-07-08T02:28:00;21.3;48.3
78541;SHT31;67835;51.968;5.646;2023-07-08T02:30:29;21.3;48.4
78541;SHT31;67835;51.968;5.646;2023-07-08T02:32:59;21.3;48.5
78541;SHT31;67835;51.968;5.646;2023-07-08T02:35:30;21.2;48.8
78541;SHT31;67835;51.968;5.646;2023-07-08T02:37:59;21.2;48.7
78541;SHT31;67835;51.968;5.646;2023-07-08T02:40:29;21.2;48.8
78541;SHT31;67835;51.968;5.646;2023-07-08T02:42:58;21.2;49.0
78541;SHT31;67835;51.968;5.646;2023-07-08T02:45:27;21.1;49.1
78541;SHT31;67835;51.968;5.646;2023-07-08T02:47:55;21.1;49.2
78541;SHT31;67835;51.968;5.646;2023-07-08T02:50:24;21.1;49.2
78541;SHT31;67835;51.968;5.646;2023-07-08T02:52:53;21.1;49.4
78541;SHT31;67835;51.968;5.646;2023-07-08T02:55:22;21.1;49.5
78541;SHT31;67835;51.968;5.646;2023-07-08T02:57:50;21.0;49.5
78541;SHT31;67835;51.968;5.646;2023-07-08T03:00:19;21.0;49.7
78541;SHT31;67835;51.968;5.646;2023-07-08T03:02:48;21.0;49.7
78541;SHT31;67835;51.968;5.646;2023-07-08T03:05:16;21.0;49.7
78541;SHT31;67835;51.968;5.646;2023-07-08T03:07:45;21.0;49.7
78541;SHT31;67835;51.968;5.646;2023-07-08T03:10:14;21.0;49.8
78541;SHT31;67835;51.968;5.646;2023-07-08T03:12:43;20.9;50.1
78541;SHT31;67835;51.968;5.646;2023-07-08T03:15:12;20.9;50.1
78541;SHT31;67835;51.968;5.646;2023-07-08T03:17:40;20.9;50.1
78541;SHT31;67835;51.968;5.646;2023-07-08T03:20:11;20.9;50.0
78541;SHT31;67835;51.968;5.646;2023-07-08T03:22:40;20.9;50.2
78541;SHT31;67835;51.968;5.646;2023-07-08T03:25:10;20.9;50.1
78541;SHT31;67835;51.968;5.646;2023-07-08T03:27:38;20.9;50.2
78541;SHT31;67835;51.968;5.646;2023-07-08T03:30:11;20.9;50.5
78541;SHT31;67835;51.968;5.646;2023-07-08T03:32:39;20.9;50.1
78541;SHT31;67835;51.968;5.646;2023-07-08T03:35:09;20.9;50.3
78541;SHT31;67835;51.968;5.646;2023-07-08T03:37:37;20.9;50.6
78541;SHT31;67835;51.968;5.646;2023-07-08T03:40:08;20.9;50.2
78541;SHT31;67835;51.968;5.646;2023-07-08T03:42:38;20.9;50.5
78541;SHT31;67835;51.968;5.646;2023-07-08T03:45:08;20.9;50.5
78541;SHT31;67835;51.968;5.646;2023-07-08T03:47:37;20.9;50.6
78541;SHT31;67835;51.968;5.646;2023-07-08T03:50:18;20.9;50.3
78541;SHT31;67835;51.968;5.646;2023-07-08T03:52:49;20.9;50.5
78541;SHT31;67835;51.968;5.646;2023-07-08T03:55:19;20.9;50.8
78541;SHT31;67835;51.968;5.646;2023-07-08T03:57:49;20.9;50.5
78541;SHT31;67835;51.968;5.646;2023-07-08T04:00:18;21.0;50.5
78541;SHT31;67835;51.968;5.646;2023-07-08T04:02:47;21.0;50.4
78541;SHT31;67835;51.968;5.646;2023-07-08T04:05:20;21.0;50.1
78541;SHT31;67835;51.968;5.646;2023-07-08T04:07:49;21.0;50.3
78541;SHT31;67835;51.968;5.646;2023-07-08T04:10:19;21.0;50.2
78541;SHT31;67835;51.968;5.646;2023-07-08T04:12:48;21.0;50.3
78541;SHT31;67835;51.968;5.646;2023-07-08T04:15:19;21.0;50.3
78541;SHT31;67835;51.968;5.646;2023-07-08T04:17:52;21.1;50.2
78541;SHT31;67835;51.968;5.646;2023-07-08T04:20:22;21.1;50.3
78541;SHT31;67835;51.968;5.646;2023-07-08T04:22:52;21.1;50.4
78541;SHT31;67835;51.968;5.646;2023-07-08T04:25:21;21.1;50.3
78541;SHT31;67835;51.968;5.646;2023-07-08T04:27:51;21.1;50.3
78541;SHT31;67835;51.968;5.646;2023-07-08T04:30:24;21.1;50.7
78541;SHT31;67835;51.968;5.646;2023-07-08T04:32:53;21.1;50.3
78541;SHT31;67835;51.968;5.646;2023-07-08T04:35:22;21.2;50.3
78541;SHT31;67835;51.968;5.646;2023-07-08T04:37:51;21.2;50.3
78541;SHT31;67835;51.968;5.646;2023-07-08T04:40:21;21.2;50.6
78541;SHT31;67835;51.968;5.646;2023-07-08T04:42:49;21.2;50.3
78541;SHT31;67835;51.968;5.646;2023-07-08T04:45:18;21.3;50.5
78541;SHT31;67835;51.968;5.646;2023-07-08T04:47:48;21.3;50.4
78541;SHT31;67835;51.968;5.646;2023-07-08T04:50:19;21.3;50.3
78541;SHT31;67835;51.968;5.646;2023-07-08T04:52:48;21.4;50.5
78541;SHT31;67835;51.968;5.646;2023-07-08T04:55:18;21.4;49.9
78541;SHT31;67835;51.968;5.646;2023-07-08T04:57:47;21.4;50.3
78541;SHT31;67835;51.968;5.646;2023-07-08T05:00:18;21.5;50.1
78541;SHT31;67835;51.968;5.646;2023-07-08T05:02:51;21.5;50.0
78541;SHT31;67835;51.968;5.646;2023-07-08T05:05:21;21.5;50.2
78541;SHT31;67835;51.968;5.646;2023-07-08T05:07:50;21.6;49.7
78541;SHT31;67835;51.968;5.646;2023-07-08T05:10:19;21.6;50.0
78541;SHT31;67835;51.968;5.646;2023-07-08T05:12:49;21.6;50.0
78541;SHT31;67835;51.968;5.646;2023-07-08T05:15:18;21.7;49.9
78541;SHT31;67835;51.968;5.646;2023-07-08T05:17:50;21.7;49.7
78541;SHT31;67835;51.968;5.646;2023-07-08T05:20:21;21.8;49.7
78541;SHT31;67835;51.968;5.646;2023-07-08T05:22:52;21.8;49.8
78541;SHT31;67835;51.968;5.646;2023-07-08T05:25:22;21.8;49.8
78541;SHT31;67835;51.968;5.646;2023-07-08T05:27:50;21.9;49.3
78541;SHT31;67835;51.968;5.646;2023-07-08T05:30:19;21.9;49.1
78541;SHT31;67835;51.968;5.646;2023-07-08T05:32:47;22.0;49.3
78541;SHT31;67835;51.968;5.646;2023-07-08T05:35:19;22.0;49.0
78541;SHT31;67835;51.968;5.646;2023-07-08T05:37:47;22.1;49.0
78541;SHT31;67835;51.968;5.646;2023-07-08T05:40:16;22.2;49.1
78541;SHT31;67835;51.968;5.646;2023-07-08T05:42:45;22.2;48.6
78541;SHT31;67835;51.968;5.646;2023-07-08T05:45:14;22.3;48.5
78541;SHT31;67835;51.968;5.646;2023-07-08T05:47:43;22.3;48.8
78541;SHT31;67835;51.968;5.646;2023-07-08T05:50:13;22.4;48.8
78541;SHT31;67835;51.968;5.646;2023-07-08T05:52:41;22.5;48.4
78541;SHT31;67835;51.968;5.646;2023-07-08T05:55:12;22.5;48.1
78541;SHT31;67835;51.968;5.646;2023-07-08T05:57:41;22.6;48.3
78541;SHT31;67835;51.968;5.646;2023-07-08T06:00:11;22.7;48.0
78541;SHT31;67835;51.968;5.646;2023-07-08T06:02:40;22.8;48.0
78541;SHT31;67835;51.968;5.646;2023-07-08T06:05:09;22.8;47.2
78541;SHT31;67835;51.968;5.646;2023-07-08T06:07:41;22.9;47.5
78541;SHT31;67835;51.968;5.646;2023-07-08T06:10:09;23.0;47.5
78541;SHT31;67835;51.968;5.646;2023-07-08T06:12:38;23.1;47.5
78541;SHT31;67835;51.968;5.646;2023-07-08T06:15:07;23.1;47.5
78541;SHT31;67835;51.968;5.646;2023-07-08T06:17:38;23.2;47.9
78541;SHT31;67835;51.968;5.646;2023-07-08T06:20:10;23.3;47.4
78541;SHT31;67835;51.968;5.646;2023-07-08T06:22:39;23.4;47.4
78541;SHT31;67835;51.968;5.646;2023-07-08T06:25:11;23.4;47.3
78541;SHT31;67835;51.968;5.646;2023-07-08T06:27:39;23.5;46.7
78541;SHT31;67835;51.968;5.646;2023-07-08T06:30:09;23.6;46.8
78541;SHT31;67835;51.968;5.646;2023-07-08T06:32:38;23.7;46.8
78541;SHT31;67835;51.968;5.646;2023-07-08T06:35:08;23.7;46.7
78541;SHT31;67835;51.968;5.646;2023-07-08T06:37:36;23.8;46.6
78541;SHT31;67835;51.968;5.646;2023-07-08T06:40:09;23.9;47.1
78541;SHT31;67835;51.968;5.646;2023-07-08T06:42:38;24.0;46.4
78541;SHT31;67835;51.968;5.646;2023-07-08T06:45:08;24.2;45.9
78541;SHT31;67835;51.968;5.646;2023-07-08T06:47:36;24.3;46.0
78541;SHT31;67835;51.968;5.646;2023-07-08T06:50:06;24.5;45.3
78541;SHT31;67835;51.968;5.646;2023-07-08T06:52:35;24.8;46.4
78541;SHT31;67835;51.968;5.646;2023-07-08T06:55:07;25.2;45.9
78541;SHT31;67835;51.968;5.646;2023-07-08T06:57:37;25.7;45.1
78541;SHT31;67835;51.968;5.646;2023-07-08T07:00:08;26.2;43.1
78541;SHT31;67835;51.968;5.646;2023-07-08T07:02:38;26.7;41.1
78541;SHT31;67835;51.968;5.646;2023-07-08T07:05:07;27.1;40.4
78541;SHT31;67835;51.968;5.646;2023-07-08T07:07:36;27.4;40.4
78541;SHT31;67835;51.968;5.646;2023-07-08T07:10:06;27.7;40.1
78541;SHT31;67835;51.968;5.646;2023-07-08T07:12:37;28.0;40.9
78541;SHT31;67835;51.968;5.646;2023-07-08T07:15:06;28.4;40.0
78541;SHT31;67835;51.968;5.646;2023-07-08T07:17:36;28.7;38.6
78541;SHT31;67835;51.968;5.646;2023-07-08T07:20:06;29.0;38.2
78541;SHT31;67835;51.968;5.646;2023-07-08T07:22:35;29.3;37.8
78541;SHT31;67835;51.968;5.646;2023-07-08T07:25:04;29.6;38.4
78541;SHT31;67835;51.968;5.646;2023-07-08T07:27:35;29.9;36.7
78541;SHT31;67835;51.968;5.646;2023-07-08T07:30:06;30.2;36.5
78541;SHT31;67835;51.968;5.646;2023-07-08T07:32:41;30.5;35.6
78541;SHT31;67835;51.968;5.646;2023-07-08T07:35:12;30.7;35.4
78541;SHT31;67835;51.968;5.646;2023-07-08T07:37:42;30.9;35.1
78541;SHT31;67835;51.968;5.646;2023-07-08T07:40:13;31.1;35.0
78541;SHT31;67835;51.968;5.646;2023-07-08T07:42:44;31.2;34.5
78541;SHT31;67835;51.968;5.646;2023-07-08T07:45:14;31.4;34.4
78541;SHT31;67835;51.968;5.646;2023-07-08T07:47:43;31.6;33.8
78541;SHT31;67835;51.968;5.646;2023-07-08T07:50:12;31.8;34.2
78541;SHT31;67835;51.968;5.646;2023-07-08T07:52:41;31.9;34.6
78541;SHT31;67835;51.968;5.646;2023-07-08T07:55:10;32.2;33.5
78541;SHT31;67835;51.968;5.646;2023-07-08T07:57:40;32.4;32.5
78541;SHT31;67835;51.968;5.646;2023-07-08T08:00:13;32.6;32.5
78541;SHT31;67835;51.968;5.646;2023-07-08T08:02:45;32.9;32.5
78541;SHT31;67835;51.968;5.646;2023-07-08T08:05:15;33.1;32.0
78541;SHT31;67835;51.968;5.646;2023-07-08T08:07:44;33.3;32.2
78541;SHT31;67835;51.968;5.646;2023-07-08T08:10:14;33.7;31.2
78541;SHT31;67835;51.968;5.646;2023-07-08T08:12:42;34.0;31.9
78541;SHT31;67835;51.968;5.646;2023-07-08T08:15:12;34.2;31.4
78541;SHT31;67835;51.968;5.646;2023-07-08T08:17:41;34.5;30.1
78541;SHT31;67835;51.968;5.646;2023-07-08T08:20:14;34.7;29.8
78541;SHT31;67835;51.968;5.646;2023-07-08T08:22:45;34.8;29.5
78541;SHT31;67835;51.968;5.646;2023-07-08T08:25:14;35.0;29.7
78541;SHT31;67835;51.968;5.646;2023-07-08T08:27:43;35.2;29.4
78541;SHT31;67835;51.968;5.646;2023-07-08T08:30:13;35.4;29.0
78541;SHT31;67835;51.968;5.646;2023-07-08T08:32:41;35.6;28.7
78541;SHT31;67835;51.968;5.646;2023-07-08T08:35:10;35.7;28.6
78541;SHT31;67835;51.968;5.646;2023-07-08T08:37:41;35.8;28.7
78541;SHT31;67835;51.968;5.646;2023-07-08T08:40:13;36.0;28.6
78541;SHT31;67835;51.968;5.646;2023-07-08T08:42:50;36.2;27.8
78541;SHT31;67835;51.968;5.646;2023-07-08T08:45:22;36.3;28.2
78541;SHT31;67835;51.968;5.646;2023-07-08T08:47:56;36.5;28.6
78541;SHT31;67835;51.968;5.646;2023-07-08T08:50:39;36.7;28.4
78541;SHT31;67835;51.968;5.646;2023-07-08T08:53:13;37.0;27.8
78541;SHT31;67835;51.968;5.646;2023-07-08T08:55:46;37.2;27.8
78541;SHT31;67835;51.968;5.646;2023-07-08T08:58:30;37.4;27.6
78541;SHT31;67835;51.968;5.646;2023-07-08T09:01:01;37.5;27.8
78541;SHT31;67835;51.968;5.646;2023-07-08T09:03:43;37.6;27.7
78541;SHT31;67835;51.968;5.646;2023-07-08T09:06:15;37.8;28.0
78541;SHT31;67835;51.968;5.646;2023-07-08T09:08:48;37.9;28.4
78541;SHT31;67835;51.968;5.646;2023-07-08T09:11:34;38.1;27.7
78541;SHT31;67835;51.968;5.646;2023-07-08T09:14:01;38.3;27.6
78541;SHT31;67835;51.968;5.646;2023-07-08T09:16:43;38.4;27.0
78541;SHT31;67835;51.968;5.646;2023-07-08T09:19:18;38.6;26.2
78541;SHT31;67835;51.968;5.646;2023-07-08T09:21:56;38.8;26.2
78541;SHT31;67835;51.968;5.646;2023-07-08T09:24:33;39.0;25.4
78541;SHT31;67835;51.968;5.646;2023-07-08T09:27:05;39.1;25.0
78541;SHT31;67835;51.968;5.646;2023-07-08T09:29:34;39.2;25.5
78541;SHT31;67835;51.968;5.646;2023-07-08T09:32:16;39.3;25.6
78541;SHT31;67835;51.968;5.646;2023-07-08T09:34:49;39.4;26.0
78541;SHT31;67835;51.968;5.646;2023-07-08T09:37:30;39.6;25.6
78541;SHT31;67835;51.968;5.646;2023-07-08T09:40:14;39.8;26.2
78541;SHT31;67835;51.968;5.646;2023-07-08T09:42:46;40.1;25.1
78541;SHT31;67835;51.968;5.646;2023-07-08T09:45:19;40.3;25.8
78541;SHT31;67835;51.968;5.646;2023-07-08T09:47:53;40.5;24.7
78541;SHT31;67835;51.968;5.646;2023-07-08T09:50:24;40.7;25.4
78541;SHT31;67835;51.968;5.646;2023-07-08T09:52:56;41.0;25.4
78541;SHT31;67835;51.968;5.646;2023-07-08T09:55:29;41.3;25.7
78541;SHT31;67835;51.968;5.646;2023-07-08T09:57:59;41.5;23.9
78541;SHT31;67835;51.968;5.646;2023-07-08T10:00:38;41.7;24.9
78541;SHT31;67835;51.968;5.646;2023-07-08T10:03:15;41.9;23.2
78541;SHT31;67835;51.968;5.646;2023-07-08T10:05:48;42.1;23.5
78541;SHT31;67835;51.968;5.646;2023-07-08T10:08:19;42.3;24.0
78541;SHT31;67835;51.968;5.646;2023-07-08T10:10:55;42.5;24.8
78541;SHT31;67835;51.968;5.646;2023-07-08T10:13:37;42.6;23.3
78541;SHT31;67835;51.968;5.646;2023-07-08T10:16:13;42.8;23.6
78541;SHT31;67835;51.968;5.646;2023-07-08T10:18:42;43.0;22.8
78541;SHT31;67835;51.968;5.646;2023-07-08T10:21:22;43.1;23.2
78541;SHT31;67835;51.968;5.646;2023-07-08T10:24:01;43.3;22.3
78541;SHT31;67835;51.968;5.646;2023-07-08T10:26:33;43.5;23.8
78541;SHT31;67835;51.968;5.646;2023-07-08T10:29:15;43.7;22.8
78541;SHT31;67835;51.968;5.646;2023-07-08T10:31:56;43.9;22.6
78541;SHT31;67835;51.968;5.646;2023-07-08T10:34:39;44.0;22.1
78541;SHT31;67835;51.968;5.646;2023-07-08T10:37:21;44.2;22.9
78541;SHT31;67835;51.968;5.646;2023-07-08T10:40:06;44.3;21.4
78541;SHT31;67835;51.968;5.646;2023-07-08T10:42:48;44.4;23.0
78541;SHT31;67835;51.968;5.646;2023-07-08T10:45:26;44.6;22.8
78541;SHT31;67835;51.968;5.646;2023-07-08T10:48:19;44.8;22.5
78541;SHT31;67835;51.968;5.646;2023-07-08T10:51:10;45.0;23.0
78541;SHT31;67835;51.968;5.646;2023-07-08T10:53:58;45.1;22.0
78541;SHT31;67835;51.968;5.646;2023-07-08T10:56:39;45.3;22.0
78541;SHT31;67835;51.968;5.646;2023-07-08T11:00:00;45.4;20.3
78541;SHT31;67835;51.968;5.646;2023-07-08T11:06:48;45.5;20.1
78541;SHT31;67835;51.968;5.646;2023-07-08T11:09:24;45.5;21.6
78541;SHT31;67835;51.968;5.646;2023-07-08T11:12:00;45.4;20.2
78541;SHT31;67835;51.968;5.646;2023-07-08T11:14:40;45.4;21.5
78541;SHT31;67835;51.968;5.646;2023-07-08T11:17:15;45.4;21.3
78541;SHT31;67835;51.968;5.646;2023-07-08T11:19:50;45.3;21.5
78541;SHT31;67835;51.968;5.646;2023-07-08T11:22:21;45.3;21.5
78541;SHT31;67835;51.968;5.646;2023-07-08T11:24:52;45.2;20.8
78541;SHT31;67835;51.968;5.646;2023-07-08T11:27:26;45.1;20.5
78541;SHT31;67835;51.968;5.646;2023-07-08T11:29:59;45.1;21.6
78541;SHT31;67835;51.968;5.646;2023-07-08T11:32:31;45.0;20.5
78541;SHT31;67835;51.968;5.646;2023-07-08T11:35:05;44.9;21.1
78541;SHT31;67835;51.968;5.646;2023-07-08T11:37:35;44.8;21.5
78541;SHT31;67835;51.968;5.646;2023-07-08T11:40:17;44.7;21.5
78541;SHT31;67835;51.968;5.646;2023-07-08T11:42:47;44.5;22.3
78541;SHT31;67835;51.968;5.646;2023-07-08T11:45:27;44.5;22.4
78541;SHT31;67835;51.968;5.646;2023-07-08T11:48:05;44.4;21.5
78541;SHT31;67835;51.968;5.646;2023-07-08T11:50:37;44.3;22.2
78541;SHT31;67835;51.968;5.646;2023-07-08T11:53:11;44.2;21.5
78541;SHT31;67835;51.968;5.646;2023-07-08T11:55:47;44.1;21.3
78541;SHT31;67835;51.968;5.646;2023-07-08T11:58:25;43.9;21.5
78541;SHT31;67835;51.968;5.646;2023-07-08T12:00:58;43.8;21.0
78541;SHT31;67835;51.968;5.646;2023-07-08T12:03:34;43.6;22.0
78541;SHT31;67835;51.968;5.646;2023-07-08T12:06:53;43.4;22.4
78541;SHT31;67835;51.968;5.646;2023-07-08T12:09:26;43.3;22.1
78541;SHT31;67835;51.968;5.646;2023-07-08T12:11:59;43.2;22.0
78541;SHT31;67835;51.968;5.646;2023-07-08T12:14:29;43.1;21.3
78541;SHT31;67835;51.968;5.646;2023-07-08T12:17:01;43.0;21.4
78541;SHT31;67835;51.968;5.646;2023-07-08T12:19:31;42.9;21.3
78541;SHT31;67835;51.968;5.646;2023-07-08T12:22:04;42.8;22.9
78541;SHT31;67835;51.968;5.646;2023-07-08T12:24:34;42.6;23.3
78541;SHT31;67835;51.968;5.646;2023-07-08T12:27:03;42.5;22.9
78541;SHT31;67835;51.968;5.646;2023-07-08T12:29:32;42.5;22.4
78541;SHT31;67835;51.968;5.646;2023-07-08T12:32:02;42.4;22.8
78541;SHT31;67835;51.968;5.646;2023-07-08T12:34:32;42.3;22.0
78541;SHT31;67835;51.968;5.646;2023-07-08T12:37:01;42.2;21.9
78541;SHT31;67835;51.968;5.646;2023-07-08T12:39:33;42.1;22.0
78541;SHT31;67835;51.968;5.646;2023-07-08T12:42:09;42.1;22.6
78541;SHT31;67835;51.968;5.646;2023-07-08T12:44:40;42.0;22.6
78541;SHT31;67835;51.968;5.646;2023-07-08T12:47:11;42.0;22.5
78541;SHT31;67835;51.968;5.646;2023-07-08T12:49:39;42.0;22.7
78541;SHT31;67835;51.968;5.646;2023-07-08T12:52:18;41.9;23.0
78541;SHT31;67835;51.968;5.646;2023-07-08T12:54:48;41.9;22.7
78541;SHT31;67835;51.968;5.646;2023-07-08T12:57:19;41.9;22.4
78541;SHT31;67835;51.968;5.646;2023-07-08T12:59:47;41.8;23.2
78541;SHT31;67835;51.968;5.646;2023-07-08T13:02:20;41.8;22.8
78541;SHT31;67835;51.968;5.646;2023-07-08T13:04:56;41.7;22.9
78541;SHT31;67835;51.968;5.646;2023-07-08T13:07:33;41.7;21.9
78541;SHT31;67835;51.968;5.646;2023-07-08T13:10:03;41.6;21.8
78541;SHT31;67835;51.968;5.646;2023-07-08T13:12:36;41.6;22.3
78541;SHT31;67835;51.968;5.646;2023-07-08T13:15:16;41.5;23.0
78541;SHT31;67835;51.968;5.646;2023-07-08T13:17:48;41.4;22.8
78541;SHT31;67835;51.968;5.646;2023-07-08T13:20:18;41.4;22.6
78541;SHT31;67835;51.968;5.646;2023-07-08T13:22:52;41.3;23.3
78541;SHT31;67835;51.968;5.646;2023-07-08T13:25:29;41.3;23.6
78541;SHT31;67835;51.968;5.646;2023-07-08T13:28:11;41.3;23.0
78541;SHT31;67835;51.968;5.646;2023-07-08T13:30:34;41.3;22.9
78541;SHT31;67835;51.968;5.646;2023-07-08T13:33:03;41.3;23.5
78541;SHT31;67835;51.968;5.646;2023-07-08T13:35:38;41.3;23.6
78541;SHT31;67835;51.968;5.646;2023-07-08T13:38:15;41.3;23.2
78541;SHT31;67835;51.968;5.646;2023-07-08T13:40:47;41.3;24.5
78541;SHT31;67835;51.968;5.646;2023-07-08T13:43:25;41.3;23.3
78541;SHT31;67835;51.968;5.646;2023-07-08T13:45:54;41.3;22.9
78541;SHT31;67835;51.968;5.646;2023-07-08T13:48:27;41.2;23.1
78541;SHT31;67835;51.968;5.646;2023-07-08T13:51:03;41.2;24.5
78541;SHT31;67835;51.968;5.646;2023-07-08T13:53:45;41.2;23.2
78541;SHT31;67835;51.968;5.646;2023-07-08T13:56:18;41.2;23.0
78541;SHT31;67835;51.968;5.646;2023-07-08T13:58:50;41.3;23.7
78541;SHT31;67835;51.968;5.646;2023-07-08T14:01:21;41.3;23.1
78541;SHT31;67835;51.968;5.646;2023-07-08T14:03:52;41.3;23.3
78541;SHT31;67835;51.968;5.646;2023-07-08T14:06:25;41.3;22.6
78541;SHT31;67835;51.968;5.646;2023-07-08T14:08:55;41.3;23.9
78541;SHT31;67835;51.968;5.646;2023-07-08T14:11:25;41.3;23.5
78541;SHT31;67835;51.968;5.646;2023-07-08T14:13:54;41.3;24.2
78541;SHT31;67835;51.968;5.646;2023-07-08T14:16:26;41.2;23.2
78541;SHT31;67835;51.968;5.646;2023-07-08T14:19:00;41.2;23.4
78541;SHT31;67835;51.968;5.646;2023-07-08T14:21:30;41.2;24.1
78541;SHT31;67835;51.968;5.646;2023-07-08T14:23:59;41.2;23.5
78541;SHT31;67835;51.968;5.646;2023-07-08T14:26:29;41.1;23.4
78541;SHT31;67835;51.968;5.646;2023-07-08T14:28:58;41.1;22.9
78541;SHT31;67835;51.968;5.646;2023-07-08T14:31:26;41.1;23.5
78541;SHT31;67835;51.968;5.646;2023-07-08T14:34:02;41.0;23.5
78541;SHT31;67835;51.968;5.646;2023-07-08T14:36:33;41.0;22.9
78541;SHT31;67835;51.968;5.646;2023-07-08T14:39:13;41.0;23.0
78541;SHT31;67835;51.968;5.646;2023-07-08T14:41:43;41.0;23.9
78541;SHT31;67835;51.968;5.646;2023-07-08T14:44:20;41.0;23.0
78541;SHT31;67835;51.968;5.646;2023-07-08T14:46:51;41.0;23.6
78541;SHT31;67835;51.968;5.646;2023-07-08T14:49:23;41.0;23.7
78541;SHT31;67835;51.968;5.646;2023-07-08T14:51:52;41.0;23.5
78541;SHT31;67835;51.968;5.646;2023-07-08T14:54:22;41.0;23.5
78541;SHT31;67835;51.968;5.646;2023-07-08T14:56:55;41.1;23.6
78541;SHT31;67835;51.968;5.646;2023-07-08T14:59:28;41.1;23.3
78541;SHT31;67835;51.968;5.646;2023-07-08T15:02:02;41.0;22.4
78541;SHT31;67835;51.968;5.646;2023-07-08T15:04:32;41.0;21.8
78541;SHT31;67835;51.968;5.646;2023-07-08T15:07:01;40.9;22.2
78541;SHT31;67835;51.968;5.646;2023-07-08T15:09:30;40.8;22.6
78541;SHT31;67835;51.968;5.646;2023-07-08T15:11:58;40.7;23.7
78541;SHT31;67835;51.968;5.646;2023-07-08T15:14:27;40.7;22.4
78541;SHT31;67835;51.968;5.646;2023-07-08T15:16:57;40.7;22.9
78541;SHT31;67835;51.968;5.646;2023-07-08T15:19:26;40.7;22.2
78541;SHT31;67835;51.968;5.646;2023-07-08T15:21:54;40.7;23.2
78541;SHT31;67835;51.968;5.646;2023-07-08T15:24:23;40.7;23.8
78541;SHT31;67835;51.968;5.646;2023-07-08T15:26:52;40.8;22.1
78541;SHT31;67835;51.968;5.646;2023-07-08T15:29:22;40.8;22.4
78541;SHT31;67835;51.968;5.646;2023-07-08T15:31:51;40.9;22.6
78541;SHT31;67835;51.968;5.646;2023-07-08T15:34:22;40.9;22.4
78541;SHT31;67835;51.968;5.646;2023-07-08T15:36:50;40.8;22.2
78541;SHT31;67835;51.968;5.646;2023-07-08T15:39:19;40.8;22.8
78541;SHT31;67835;51.968;5.646;2023-07-08T15:41:49;40.7;22.4
78541;SHT31;67835;51.968;5.646;2023-07-08T15:44:17;40.5;22.3
78541;SHT31;67835;51.968;5.646;2023-07-08T15:46:48;40.4;22.7
78541;SHT31;67835;51.968;5.646;2023-07-08T15:49:20;40.3;22.8
78541;SHT31;67835;51.968;5.646;2023-07-08T15:51:50;40.3;23.8
78541;SHT31;67835;51.968;5.646;2023-07-08T15:54:19;40.2;23.0
78541;SHT31;67835;51.968;5.646;2023-07-08T15:56:50;40.2;23.2
78541;SHT31;67835;51.968;5.646;2023-07-08T15:59:23;40.2;22.4
78541;SHT31;67835;51.968;5.646;2023-07-08T16:01:54;40.1;22.8
78541;SHT31;67835;51.968;5.646;2023-07-08T16:04:28;40.0;22.4
78541;SHT31;67835;51.968;5.646;2023-07-08T16:07:00;39.9;22.8
78541;SHT31;67835;51.968;5.646;2023-07-08T16:09:28;39.7;22.8
78541;SHT31;67835;51.968;5.646;2023-07-08T16:11:59;39.6;23.7
78541;SHT31;67835;51.968;5.646;2023-07-08T16:14:31;39.4;24.0
78541;SHT31;67835;51.968;5.646;2023-07-08T16:17:00;39.3;23.9
78541;SHT31;67835;51.968;5.646;2023-07-08T16:19:29;39.3;24.5
78541;SHT31;67835;51.968;5.646;2023-07-08T16:21:58;39.2;23.4
78541;SHT31;67835;51.968;5.646;2023-07-08T16:24:27;39.1;23.9
78541;SHT31;67835;51.968;5.646;2023-07-08T16:26:56;39.0;23.7
78541;SHT31;67835;51.968;5.646;2023-07-08T16:29:27;38.9;23.2
78541;SHT31;67835;51.968;5.646;2023-07-08T16:31:56;38.8;23.9
78541;SHT31;67835;51.968;5.646;2023-07-08T16:34:26;38.7;23.9
78541;SHT31;67835;51.968;5.646;2023-07-08T16:36:55;38.6;25.0